Terminal Aerodrome Forecast
Issued by NWS Buffalo, NY

Home | Current Version | Previous Version | Text Only | Print | Product List | Glossary On
Versions: 1 2 3 4 5 6 7 8 9 10 11 12 13 14 15 16 17 18 19 20 21 22 23 24 25 26
195
FTUS41 KBUF 260520
TAFART
TAF
KART 260520Z 2606/2706 26016G28KT P6SM VCSH BKN050
     FM261100 27015G27KT P6SM BKN050
     FM261700 26015G25KT P6SM BKN080
     FM262100 24014KT P6SM VCSH BKN040
     FM270000 22008KT P6SM SCT120=

USA.gov is the U.S. government's official web portal to all federal, state and local government web resources and services.